• Join FlightAware (Why Join?)
  • Login
  • US Flag 
08:03AM EDT


 

Airport Tracker/Info


-or-


 

Live Flight TrackerFlight Track Log ✈ AWI4053 ✈ 28-Sep-2013 ✈ KBOS - KPHL

Flight Track Log - Related Links

Times and Time Zones

All times are in EDT time to prevent confusion due to time zone crossing. See the AWI4053 flight status page for this flight to view local times or setup timezone preferences in your user account.

Time Position Orientation Groundspeed Altitude Reporting Facility
EDT Latitude Longitude Course Direction KTS MPH feet Rate Location/Type
10:41AM 42.3667 -70.9667 103° East 167 192 1,000  Level KA90
10:42AM 42.3667 -70.9333 90° East 158 182 2,300 2,220 Climbing KA90
10:43AM 42.3833 -70.8667 71° East 208 239 4,900 2,220 Climbing KA90
10:44AM 42.1825 -71.3338 160° South  Level Estimated
10:44AM 42.3833 -70.7500 90° East 280 322 7,000  Level KA90
10:45AM 42.1222 -71.4425 198° South  Level Estimated
10:45AM 42.3433 -70.7097 143° Southeast 290 334 8,300  Level Boston Center
10:46AM 42.0989 -71.3104 103° East  Level FlightAware Approximate
10:46AM 42.2783 -70.6778 160° South 296 341 10,700  Level Boston Center
10:47AM 42.1881 -70.6383 162° South 303 349 12,700 1,620 Climbing Boston Center
10:48AM 42.0922 -70.6411 181° South 330 380 14,100 1,440 Climbing Boston Center
10:49AM 41.9969 -70.6831 198° South 341 392 15,700 1,560 Climbing Boston Center
10:50AM 41.8975 -70.7247 197° South 355 409 17,200 1,200 Climbing Boston Center
10:51AM 41.8006 -70.7803 203° Southwest 377 434 18,100 960 Climbing Boston Center
10:52AM 41.7078 -70.8522 210° Southwest 383 441 19,200 1,080 Climbing Boston Center
10:53AM 41.6108 -70.9214 208° Southwest 393 452 20,300 1,080 Climbing Boston Center
10:54AM 41.5222 -71.0122 218° Southwest 398 458 21,400 840 Climbing Boston Center
10:55AM 41.4508 -71.1300 231° Southwest 398 458 22,000 300 Climbing Boston Center
10:56AM 41.3769 -71.2450 229° Southwest 408 470 22,000  Level Boston Center
10:57AM 41.3094 -71.3569 231° Southwest 408 470 22,000  Level Boston Center
10:58AM 41.2397 -71.4711 231° Southwest 408 470 22,000  Level Boston Center
10:59AM 41.1881 -71.5575 232° Southwest 396 456 22,000  Level Boston Center
11:00AM 41.1286 -71.6822 238° Southwest 384 442 22,000  Level Boston Center
11:01AM 41.0878 -71.8094 247° West 378 435 22,000  Level Boston Center
11:02AM 41.0489 -71.9336 247° West 372 428 22,000  Level Boston Center
11:03AM 41.0033 -72.0494 243° Southwest 372 428 22,000  Level Boston Center
11:04AM 40.9164 -72.1708 227° Southwest 377 434 22,000  Level Boston Center
11:05AM 40.8436 -72.2700 226° Southwest 377 434 22,000  Level Boston Center
11:06AM 40.7728 -72.3689 227° Southwest 372 428 22,000  Level Boston Center
11:07AM 40.6917 -72.4783 226° Southwest 377 434 22,000  Level Boston Center
11:08AM 40.6228 -72.5742 227° Southwest 377 434 22,000 -600 Level Boston Center
11:10AM 40.4528 -72.8058 226° Southwest 382 440 20,000 -600 Descending New York Center
11:11AM 40.3822 -72.9017 226° Southwest 377 434 20,000  Level New York Center
11:12AM 40.3117 -72.9975 226° Southwest 371 427 20,000  Level New York Center
11:13AM 40.2411 -73.0931 226° Southwest 371 427 20,000  Level New York Center
11:14AM 40.1703 -73.1886 226° Southwest 371 427 20,000  Level New York Center
11:15AM 40.1017 -73.2839 227° Southwest 371 427 20,000 -180 Level New York Center
11:16AM 40.0308 -73.3789 226° Southwest 371 427 19,700 -660 Descending New York Center
11:17AM 39.9578 -73.4681 223° Southwest 371 427 18,700 -840 Descending New York Center
11:19AM 39.8575 -73.6103 227° Southwest 377 434 17,700 -780 Descending Washington Center
11:20AM 39.8008 -73.7064 233° Southwest 365 420 16,700 -1,020 Descending Washington Center
11:21AM 39.7397 -73.8025 230° Southwest 359 413 15,700 -1,020 Descending Washington Center
11:22AM 39.6786 -73.8983 230° Southwest 354 407 14,700 -900 Descending Washington Center
11:23AM 39.6153 -73.9967 230° Southwest 354 407 14,000 -360 Descending Washington Center
11:24AM 39.5561 -74.0897 231° Southwest 354 407 14,000  Level Washington Center
11:25AM 39.5242 -74.1981 249° West 354 407 14,000 -360 Level Washington Center
11:26AM 39.5275 -74.3189 272° West 325 374 13,400 -1,140 Descending Washington Center
11:27AM 39.5286 -74.4372 271° West 330 380 11,800 -1,560 Descending Washington Center
11:28AM 39.5297 -74.5531 271° West 330 380 10,300 -900 Descending Washington Center
11:30AM 39.5333 -74.8333 271° West 295 339 8,700 -660 Descending Philadelphia TRACON
11:31AM 39.5333 -74.9333 270° West 281 323 8,000 -900 Descending Philadelphia TRACON
11:32AM 39.5500 -75.0333 282° West 287 330 7,000 -960 Descending Philadelphia TRACON
11:33AM 39.5500 -75.1333 270° West 287 330 6,100 -540 Descending Philadelphia TRACON
11:34AM 39.5667 -75.2333 282° West 292 336 6,000 -60 Descending Philadelphia TRACON
11:35AM 39.6000 -75.3167 297° West 284 327 6,000  Level Philadelphia TRACON
11:36AM 39.6333 -75.4000 297° West 227 261 6,000 -180 Level Philadelphia TRACON
11:37AM 39.6833 -75.4500 322° Northwest 211 243 5,700 -780 Descending Philadelphia TRACON
11:38AM 39.7333 -75.4833 333° Northwest 216 249 4,400 -1,140 Descending Philadelphia TRACON
11:39AM 39.7833 -75.5333 322° Northwest 200 230 3,400 -720 Descending Philadelphia TRACON
11:40AM 39.8167 -75.5167 21° North 191 220 3,000 -240 Descending Philadelphia TRACON
11:41AM 39.8333 -75.4500 72° East 185 213 3,000 -540 Level Philadelphia TRACON
11:42AM 39.8333 -75.4000 90° East 170 196 2,000 -960 Descending Philadelphia TRACON
11:43AM 39.8500 -75.3333 72° East 142 163 1,100 -840 Descending Philadelphia TRACON
11:44AM 39.8667 -75.2833 67° East 134 154 300 -780 Descending Philadelphia TRACON